Saint-Lin, Canada
Current Conditions -  °F | °C
As of 4:38 PM on Saturday 22 Nov 2014 (Local Time) from CYMX Reporting Station
Freezing Rain Freezing Rain  
Wind Chill: 21°   Ceiling: 2500
Heat Index: 30°   Visibility: 10mi
Dew Point: 23°   Wind: 10mph
Humidity: 75%   Direction: 230°SW
Pressure: 29.87"   Gusts: NA
Location:  45.85°N, 73.77°W
Report Text: CYMX 222138Z 23009KT 10SM -FZRA -PL FEW015 OVC025 M01/M05 A2987 RMK SF2SC6 SLP118
Loading
Personal Weather Stations






























Interactive Weather Map New forecast layout! Learn more

10-Day Weather Forecast

Advertisements
Track Severe Weather on mobile